Time;durP1;ratioP1;P1;durP2;ratioP2;P2;SDS_P1;SDS_P2;PMS_P1;PMS_P2;Temp;Humidity;BMP_temperature;BMP_pressure;BME280_temperature;BME280_humidity;BME280_pressure;Samples;Min_cycle;Max_cycle;Signal;HPM_P1;HPM_P2
2022/01/17 00:00:11;;;;;;;13.23;4.60;;;6.10;99.90;;;;;;4936221;28;89519;-30
2022/01/17 00:02:37;;;;;;;;;;;6.10;99.90;;;;;;4936370;28;88878;-29
2022/01/17 00:05:04;;;;;;;19.10;4.75;;;6.10;99.90;;;;;;4937428;28;87908;-31
2022/01/17 00:07:30;;;;;;;13.07;3.83;;;6.00;99.90;;;;;;4935639;28;90345;-32
2022/01/17 00:09:57;;;;;;;12.02;4.13;;;6.10;99.90;;;;;;4936123;28;89381;-31
2022/01/17 00:12:24;;;;;;;15.48;3.97;;;6.00;99.90;;;;;;4935693;28;87637;-30
2022/01/17 00:14:49;;;;;;;10.65;3.22;;;6.00;99.90;;;;;;4936272;28;89030;-33
2022/01/17 00:19:46;;;;;;;8.10;2.67;;;5.90;99.90;;;;;;4936255;28;90363;-30
2022/01/17 00:22:14;;;;;;;21.85;4.70;;;5.90;99.90;;;;;;4935090;28;88065;-31
2022/01/17 00:24:40;;;;;;;16.67;4.40;;;5.80;99.90;;;;;;4935508;28;88074;-33
2022/01/17 00:27:06;;;;;;;14.07;3.53;;;5.80;99.90;;;;;;4935688;28;90241;-31
2022/01/17 00:29:32;;;;;;;13.13;4.38;;;5.80;99.90;;;;;;4936360;28;89664;-31
2022/01/17 00:31:58;;;;;;;21.00;4.95;;;5.70;99.90;;;;;;4938982;28;87840;-32
2022/01/17 00:34:24;;;;;;;16.65;4.15;;;5.70;99.90;;;;;;4938363;28;87637;-30
2022/01/17 00:36:50;;;;;;;13.25;4.57;;;5.80;99.90;;;;;;4938519;28;90417;-30
2022/01/17 00:39:16;;;;;;;14.13;3.33;;;5.70;99.90;;;;;;4938791;28;89764;-33
2022/01/17 00:41:42;;;;;;;16.88;5.13;;;5.70;99.90;;;;;;4938434;28;87555;-30
2022/01/17 00:44:08;;;;;;;15.32;3.60;;;5.70;99.90;;;;;;4939293;28;87883;-30
2022/01/17 00:46:34;;;;;;;10.32;3.20;;;5.70;99.90;;;;;;4938608;28;90224;-31
2022/01/17 00:49:00;;;;;;;11.90;3.92;;;5.70;99.90;;;;;;4938635;28;89667;-30
2022/01/17 00:51:25;;;;;;;13.40;3.60;;;5.60;99.90;;;;;;4938612;28;87458;-31
2022/01/17 00:53:51;;;;;;;10.48;4.00;;;5.70;99.90;;;;;;4938508;28;87934;-30
2022/01/17 00:56:20;;;;;;;21.17;4.28;;;5.60;99.90;;;;;;4938026;28;90121;-35
2022/01/17 00:58:46;;;;;;;11.60;3.35;;;5.70;99.90;;;;;;4938393;28;89589;-31
2022/01/17 01:01:12;;;;;;;19.55;4.80;;;5.70;99.90;;;;;;4938497;28;89337;-30
2022/01/17 01:03:38;;;;;;;12.07;3.47;;;5.70;99.90;;;;;;4937981;28;87843;-32
2022/01/17 01:06:04;;;;;;;12.48;3.45;;;5.70;99.90;;;;;;4938154;28;90388;-31
2022/01/17 01:08:29;;;;;;;14.23;4.55;;;5.70;99.90;;;;;;4937785;28;88958;-33
2022/01/17 01:10:55;;;;;;;12.90;3.65;;;5.60;99.90;;;;;;4938605;28;87636;-32
2022/01/17 01:13:24;;;;;;;22.30;3.90;;;5.60;99.90;;;;;;4937841;28;87725;-29
2022/01/17 01:21:26;;;;;;;19.42;3.60;;;5.70;99.90;;;;;;4938430;28;88209;-29
2022/01/17 01:29:18;;;;;;;15.27;3.85;;;5.70;99.90;;;;;;4937722;28;90081;-29
2022/01/17 01:31:58;;;;;;;16.27;3.83;;;5.70;99.90;;;;;;4937823;28;88954;-29
2022/01/17 01:34:34;;;;;;;14.85;4.07;;;5.70;99.90;;;;;;4938171;28;88265;-30
2022/01/17 01:37:01;;;;;;;9.80;2.97;;;5.60;99.90;;;;;;4937755;28;90268;-33
2022/01/17 01:39:27;;;;;;;7.70;3.53;;;5.60;99.90;;;;;;4937611;28;89312;-28
2022/01/17 01:41:53;;;;;;;13.63;3.88;;;5.60;99.90;;;;;;4936804;28;88364;-34
2022/01/17 01:44:20;;;;;;;13.57;4.43;;;5.60;99.90;;;;;;4938380;28;87709;-29
2022/01/17 01:46:47;;;;;;;12.00;3.67;;;5.70;99.90;;;;;;4937953;28;90389;-30
2022/01/17 01:49:14;;;;;;;15.55;3.67;;;5.70;99.90;;;;;;4937808;28;90302;-31
2022/01/17 01:51:41;;;;;;;19.88;4.55;;;5.60;99.90;;;;;;4937178;28;87580;-29
2022/01/17 01:54:07;;;;;;;25.48;5.15;;;5.60;99.90;;;;;;4937868;28;87558;-30
2022/01/17 01:56:38;;;;;;;18.00;4.22;;;5.60;99.90;;;;;;4937153;28;90199;-29
2022/01/17 01:59:06;;;;;;;10.13;3.78;;;5.60;99.90;;;;;;4937378;28;89983;-30
2022/01/17 02:01:32;;;;;;;20.85;4.15;;;5.70;99.90;;;;;;4937520;28;87703;-29
2022/01/17 02:03:58;;;;;;;10.50;4.85;;;5.60;99.90;;;;;;4936402;28;87694;-31
2022/01/17 02:06:24;;;;;;;17.75;4.70;;;5.60;99.90;;;;;;4936715;28;90493;-30
2022/01/17 02:08:50;;;;;;;14.65;4.75;;;5.70;99.90;;;;;;4937766;28;89468;-30
2022/01/17 02:11:16;;;;;;;17.52;4.43;;;5.70;99.90;;;;;;4937434;28;87632;-29
2022/01/17 02:13:42;;;;;;;21.38;5.07;;;5.60;99.90;;;;;;4937302;28;87661;-29
2022/01/17 02:16:10;;;;;;;19.73;4.60;;;5.60;99.90;;;;;;4937443;28;90260;-31
2022/01/17 02:18:37;;;;;;;13.10;4.05;;;5.60;99.90;;;;;;4937123;28;89638;-30
2022/01/17 02:23:35;;;;;;;18.88;4.63;;;5.50;99.90;;;;;;4937197;28;88114;-30
2022/01/17 02:26:01;;;;;;;13.30;4.53;;;5.50;99.90;;;;;;4937057;28;89850;-33
2022/01/17 02:28:26;;;;;;;8.75;4.38;;;5.50;99.90;;;;;;4936585;28;90108;-32
2022/01/17 02:30:52;;;;;;;10.02;3.90;;;5.50;99.90;;;;;;4937122;28;87602;-30
2022/01/17 02:33:19;;;;;;;19.80;3.60;;;5.40;99.90;;;;;;4937263;28;87985;-31
2022/01/17 02:35:49;;;;;;;17.35;4.72;;;5.40;99.90;;;;;;4936696;28;90331;-32
2022/01/17 02:38:14;;;;;;;14.63;3.65;;;5.30;99.90;;;;;;4936616;28;90081;-32
2022/01/17 02:40:40;;;;;;;16.70;4.95;;;5.30;99.90;;;;;;4936305;28;87631;-29
2022/01/17 02:43:07;;;;;;;12.27;3.88;;;5.30;99.90;;;;;;4936393;28;87961;-30
2022/01/17 02:46:24;;;;;;;16.05;5.15;;;5.30;99.90;;;;;;4936651;28;89150;-32
2022/01/17 02:48:34;;;;;;;19.02;4.93;;;5.30;99.90;;;;;;4936112;28;88955;-32
2022/01/17 02:51:01;;;;;;;17.25;3.70;;;5.20;99.90;;;;;;4937032;28;88089;-30
2022/01/17 02:53:27;;;;;;;13.13;4.35;;;5.20;99.90;;;;;;4935539;28;87782;-32
2022/01/17 02:55:56;;;;;;;17.13;4.53;;;5.10;99.90;;;;;;4936869;28;90377;-30
2022/01/17 02:58:23;;;;;;;15.88;4.68;;;5.10;99.90;;;;;;4936621;28;88735;-31
2022/01/17 03:00:51;;;;;;;17.45;4.80;;;5.10;99.90;;;;;;4936600;28;87625;-31
2022/01/17 03:03:21;;;;;;;25.13;5.20;;;5.00;99.90;;;;;;4936365;28;87716;-31
2022/01/17 03:05:48;;;;;;;13.40;4.40;;;5.00;99.90;;;;;;4936151;28;90618;-29
2022/01/17 03:08:15;;;;;;;15.00;3.60;;;5.10;99.90;;;;;;4936655;28;88859;-31
2022/01/17 03:10:43;;;;;;;22.38;4.38;;;5.10;99.90;;;;;;4936157;28;87562;-31
2022/01/17 03:13:34;;;;;;;19.35;4.43;;;5.10;99.90;;;;;;4936603;28;88948;-33
2022/01/17 03:16:04;;;;;;;11.95;4.30;;;5.10;99.90;;;;;;4936285;28;90307;-30
2022/01/17 03:18:32;;;;;;;15.20;4.22;;;5.00;99.90;;;;;;4935924;28;88975;-30
2022/01/17 03:20:59;;;;;;;14.02;3.78;;;5.00;99.90;;;;;;4937075;28;87558;-31
2022/01/17 03:23:25;;;;;;;13.18;4.10;;;5.10;99.90;;;;;;4935735;28;87567;-34
2022/01/17 03:25:51;;;;;;;12.27;3.42;;;5.00;99.90;;;;;;4936570;28;89702;-30
2022/01/17 03:28:16;;;;;;;19.73;4.68;;;5.00;99.90;;;;;;4936116;28;89191;-30
2022/01/17 03:30:42;;;;;;;12.35;4.03;;;5.10;99.90;;;;;;4936582;28;87522;-29
2022/01/17 03:33:11;;;;;;;16.38;3.65;;;5.00;99.90;;;;;;4936538;28;87786;-30
2022/01/17 03:35:38;;;;;;;;;;;5.00;99.90;;;;;;4936682;28;88996;-30
2022/01/17 03:38:08;;;;;;;7.93;3.92;;;5.00;99.90;;;;;;4937452;28;89668;-29
2022/01/17 03:40:34;;;;;;;13.80;3.60;;;5.00;99.90;;;;;;4935870;28;88578;-30
2022/01/17 03:42:59;;;;;;;15.88;3.47;;;5.00;99.90;;;;;;4935413;28;88677;-29
2022/01/17 03:45:25;;;;;;;9.70;3.88;;;5.00;99.90;;;;;;4936012;28;96681;-31
2022/01/17 03:47:51;;;;;;;16.40;4.18;;;5.00;99.90;;;;;;4935943;28;89671;-29
2022/01/17 03:50:20;;;;;;;17.83;3.92;;;5.00;99.90;;;;;;4935944;28;87538;-31
2022/01/17 03:52:46;;;;;;;;;;;5.00;99.90;;;;;;4936284;28;88549;-30
2022/01/17 03:55:14;;;;;;;7.75;3.75;;;5.00;99.90;;;;;;4937413;28;90170;-29
2022/01/17 03:57:43;;;;;;;;;;;5.00;99.90;;;;;;4935901;28;89719;-30
2022/01/17 04:00:12;;;;;;;16.83;3.85;;;5.00;99.90;;;;;;4937579;28;87513;-32
2022/01/17 04:02:38;;;;;;;11.60;4.45;;;5.00;99.90;;;;;;4935712;28;87645;-29
2022/01/17 04:05:04;;;;;;;14.20;3.22;;;5.10;99.90;;;;;;4938613;28;90368;-29
2022/01/17 04:07:30;;;;;;;12.80;4.03;;;5.20;99.90;;;;;;4938793;28;89763;-34
2022/01/17 04:09:55;;;;;;;24.05;3.63;;;5.20;99.90;;;;;;4939405;28;87537;-31
2022/01/17 04:12:21;;;;;;;11.02;3.38;;;5.20;99.90;;;;;;4938957;28;88601;-33
2022/01/17 04:14:46;;;;;;;9.23;3.67;;;5.20;99.90;;;;;;4939264;28;88984;-30
2022/01/17 04:17:12;;;;;;;12.05;3.15;;;5.20;99.90;;;;;;4939651;28;89569;-28
2022/01/17 04:19:38;;;;;;;16.35;3.90;;;5.30;99.90;;;;;;4939400;28;87570;-31
2022/01/17 04:22:04;;;;;;;9.55;2.83;;;5.30;99.90;;;;;;4939512;28;87636;-30
2022/01/17 04:24:30;;;;;;;13.93;3.78;;;5.20;99.90;;;;;;4938992;28;88957;-31
2022/01/17 04:26:55;;;;;;;10.45;3.83;;;5.30;99.90;;;;;;4938890;28;89874;-30
2022/01/17 04:29:21;;;;;;;8.10;3.45;;;5.30;99.90;;;;;;4939094;28;87553;-33
2022/01/17 04:31:47;;;;;;;16.33;3.78;;;5.30;99.90;;;;;;4938898;28;87590;-29
2022/01/17 04:34:13;;;;;;;15.15;4.13;;;5.30;99.90;;;;;;4938598;28;88932;-31
2022/01/17 04:36:38;;;;;;;24.92;4.20;;;5.20;99.90;;;;;;4938952;28;88305;-30
2022/01/17 04:39:04;;;;;;;7.47;3.17;;;5.20;99.90;;;;;;4939015;28;87606;-31
2022/01/17 04:41:39;;;;;;;8.55;3.30;;;5.30;99.90;;;;;;4938088;28;87664;-30
2022/01/17 04:46:49;;;;;;;11.40;3.38;;;5.20;99.90;;;;;;4936812;28;90213;-30
2022/01/17 04:49:15;;;;;;;16.77;4.60;;;5.20;99.90;;;;;;4937767;28;88546;-31
2022/01/17 04:51:42;;;;;;;9.70;4.18;;;5.20;99.90;;;;;;4937321;28;88019;-34
2022/01/17 04:54:42;;;;;;;15.38;3.47;;;5.20;99.90;;;;;;4937156;28;90221;-30
2022/01/17 04:56:59;;;;;;;9.90;4.13;;;5.30;99.90;;;;;;4932483;28;90422;-28
2022/01/17 04:59:25;;;;;;;15.90;3.33;;;5.30;99.90;;;;;;4935276;28;90610;-32
2022/01/17 05:01:50;;;;;;;13.40;3.47;;;5.30;99.90;;;;;;4936890;28;87597;-31
2022/01/17 05:04:16;;;;;;;11.13;3.03;;;5.30;99.90;;;;;;4937077;28;89191;-29
2022/01/17 05:06:41;;;;;;;12.60;3.15;;;5.20;99.90;;;;;;4936597;28;88751;-30
2022/01/17 05:09:07;;;;;;;8.10;3.58;;;5.30;99.90;;;;;;4935445;28;89567;-30
2022/01/17 05:11:33;;;;;;;18.30;4.13;;;5.30;99.90;;;;;;4936723;28;87665;-31
2022/01/17 05:13:59;;;;;;;11.40;3.55;;;5.30;99.90;;;;;;4937251;28;90174;-30
2022/01/17 05:16:39;;;;;;;13.50;4.20;;;5.40;99.90;;;;;;4936599;28;89615;-31
2022/01/17 05:21:49;;;;;;;12.48;3.88;;;5.40;99.90;;;;;;4936482;28;88730;-30
2022/01/17 05:24:14;;;;;;;7.57;3.28;;;5.50;99.90;;;;;;4936859;28;90226;-32
2022/01/17 05:26:41;;;;;;;11.63;3.75;;;5.50;99.90;;;;;;4935250;28;89501;-31
2022/01/17 05:29:07;;;;;;;12.50;4.45;;;5.50;99.90;;;;;;4936382;28;89634;-31
2022/01/17 05:31:32;;;;;;;18.27;3.92;;;5.60;99.90;;;;;;4936584;28;88069;-31
2022/01/17 05:33:58;;;;;;;10.85;3.63;;;5.60;99.90;;;;;;4936323;28;90216;-30
2022/01/17 05:36:23;;;;;;;13.95;3.50;;;5.60;99.90;;;;;;4936366;28;89757;-31
2022/01/17 05:38:52;;;;;;;13.07;4.40;;;5.70;99.90;;;;;;4936606;28;89549;-33
2022/01/17 05:41:18;;;;;;;16.45;4.00;;;5.60;99.90;;;;;;4936310;28;87451;-31
2022/01/17 05:43:43;;;;;;;16.08;4.60;;;5.60;99.90;;;;;;4935862;28;90325;-30
2022/01/17 05:46:09;;;;;;;10.93;4.28;;;5.60;99.90;;;;;;4936048;28;90343;-31
2022/01/17 05:48:34;;;;;;;10.57;4.32;;;5.60;99.90;;;;;;4935453;28;90508;-31
2022/01/17 05:51:00;;;;;;;12.45;3.80;;;5.70;99.90;;;;;;4936694;28;87660;-29
2022/01/17 05:53:26;;;;;;;11.90;4.07;;;5.70;99.90;;;;;;4936020;28;94818;-30
2022/01/17 05:55:51;;;;;;;12.35;3.38;;;5.80;99.90;;;;;;4936339;28;89626;-29
2022/01/17 05:58:17;;;;;;;11.35;4.28;;;5.80;99.90;;;;;;4935932;28;89470;-32
2022/01/17 06:00:43;;;;;;;9.52;4.55;;;5.70;99.90;;;;;;4936293;28;87931;-31
2022/01/17 06:03:08;;;;;;;15.50;4.90;;;5.70;99.90;;;;;;4935670;28;90018;-29
2022/01/17 06:05:34;;;;;;;12.73;4.30;;;5.80;99.90;;;;;;4935587;28;89400;-32
2022/01/17 06:07:59;;;;;;;11.55;4.03;;;5.80;99.90;;;;;;4935961;28;88548;-30
2022/01/17 06:10:25;;;;;;;15.50;5.70;;;5.80;99.90;;;;;;4935681;28;88148;-34
2022/01/17 06:12:50;;;;;;;15.48;4.32;;;5.80;99.90;;;;;;4936046;28;89359;-31
2022/01/17 06:15:18;;;;;;;17.33;5.00;;;5.80;99.90;;;;;;4935846;28;89703;-30
2022/01/17 06:17:44;;;;;;;13.65;5.53;;;5.90;99.90;;;;;;4935582;28;89643;-31
2022/01/17 06:20:10;;;;;;;14.18;5.18;;;6.00;99.90;;;;;;4897260;28;88920;-30
2022/01/17 06:22:36;;;;;;;12.20;4.88;;;6.00;99.90;;;;;;4935234;28;91936;-31
2022/01/17 06:25:02;;;;;;;18.95;4.85;;;6.00;99.90;;;;;;4935796;28;90004;-31
2022/01/17 06:27:28;;;;;;;13.45;5.07;;;6.00;99.90;;;;;;4935377;28;89713;-31
2022/01/17 06:29:54;;;;;;;17.25;6.07;;;6.00;99.90;;;;;;4936000;28;89033;-30
2022/01/17 06:32:19;;;;;;;25.50;5.80;;;6.10;99.90;;;;;;4935520;28;90270;-30
2022/01/17 06:34:46;;;;;;;18.35;4.88;;;6.10;99.90;;;;;;4934815;28;90739;-32
2022/01/17 06:37:11;;;;;;;20.50;5.35;;;6.10;99.90;;;;;;4935541;28;89047;-29
2022/01/17 06:39:37;;;;;;;26.83;6.22;;;6.10;99.90;;;;;;4935513;28;87601;-32
2022/01/17 06:42:03;;;;;;;15.43;5.22;;;6.10;99.90;;;;;;4941863;28;90408;-30
2022/01/17 06:44:28;;;;;;;18.38;6.38;;;6.20;99.90;;;;;;4955112;28;88560;-31
2022/01/17 06:46:54;;;;;;;21.40;6.05;;;6.30;99.90;;;;;;4954782;28;88428;-30
2022/01/17 06:49:19;;;;;;;13.65;4.97;;;6.20;99.90;;;;;;4955089;28;88401;-30
2022/01/17 06:51:45;;;;;;;17.25;6.40;;;6.30;99.90;;;;;;4955079;28;90279;-31
2022/01/17 06:54:11;;;;;;;19.88;6.47;;;6.30;99.90;;;;;;4954636;28;89927;-29
2022/01/17 06:56:36;;;;;;;15.75;6.00;;;6.30;99.90;;;;;;4954801;28;90106;-32
2022/01/17 06:59:02;;;;;;;17.83;6.30;;;6.30;99.90;;;;;;4954252;28;88051;-30
2022/01/17 07:01:28;;;;;;;12.63;5.35;;;6.30;99.90;;;;;;4943236;28;90302;-31
2022/01/17 07:03:53;;;;;;;21.67;6.50;;;6.30;99.90;;;;;;4948273;28;89979;-31
2022/01/17 07:06:19;;;;;;;17.35;7.03;;;6.40;99.90;;;;;;4954663;28;89438;-29
2022/01/17 07:08:45;;;;;;;18.30;7.47;;;6.40;99.90;;;;;;4908500;28;88720;-31
2022/01/17 07:11:12;;;;;;;18.08;6.35;;;6.30;99.90;;;;;;4935438;28;90314;-31
2022/01/17 07:13:38;;;;;;;19.30;6.90;;;6.30;99.90;;;;;;4934414;28;89730;-31
2022/01/17 07:16:04;;;;;;;19.98;6.60;;;6.30;99.90;;;;;;4935147;28;89359;-31
2022/01/17 07:18:29;;;;;;;18.92;7.28;;;6.30;99.90;;;;;;4935267;28;87737;-30
2022/01/17 07:20:55;;;;;;;33.00;8.40;;;6.30;99.90;;;;;;4934707;28;89215;-30
2022/01/17 07:23:21;;;;;;;12.32;5.88;;;6.30;99.90;;;;;;4924282;28;90681;-30
2022/01/17 07:25:47;;;;;;;19.17;7.03;;;6.30;99.90;;;;;;4915045;28;90030;-30
2022/01/17 07:28:13;;;;;;;20.58;6.82;;;6.40;99.90;;;;;;4913832;28;87782;-30
2022/01/17 07:30:39;;;;;;;20.65;7.03;;;6.40;99.90;;;;;;4914275;28;90441;-32
2022/01/17 07:33:06;;;;;;;14.15;6.38;;;6.50;99.90;;;;;;4913918;28;89656;-30
2022/01/17 07:35:32;;;;;;;20.98;7.20;;;6.40;99.90;;;;;;4915513;28;89999;-30
2022/01/17 07:37:58;;;;;;;25.20;7.32;;;6.40;99.90;;;;;;4914843;28;88788;-33
2022/01/17 07:40:24;;;;;;;20.45;7.65;;;6.40;99.90;;;;;;4915406;28;90171;-30
2022/01/17 07:42:49;;;;;;;20.92;6.78;;;6.40;99.90;;;;;;4914811;28;89506;-29
2022/01/17 07:45:17;;;;;;;12.80;6.65;;;6.60;99.90;;;;;;4915660;28;89573;-30
2022/01/17 07:47:57;;;;;;;21.77;6.47;;;6.60;99.90;;;;;;4914724;28;88130;-29
2022/01/17 07:50:25;;;;;;;20.77;7.10;;;6.70;99.90;;;;;;4915475;28;89880;-31
2022/01/17 07:52:52;;;;;;;16.45;6.28;;;6.60;99.90;;;;;;4914929;28;89894;-32
2022/01/17 07:55:19;;;;;;;19.83;7.55;;;6.70;99.90;;;;;;4915224;28;89249;-29
2022/01/17 07:57:45;;;;;;;19.40;7.90;;;6.70;99.90;;;;;;4915106;28;87704;-29
2022/01/17 08:00:15;;;;;;;31.05;7.72;;;6.70;99.90;;;;;;4915605;28;90736;-30
2022/01/17 08:02:40;;;;;;;19.27;7.85;;;6.70;99.90;;;;;;4914531;28;90286;-30
2022/01/17 08:05:08;;;;;;;22.75;6.80;;;6.70;99.90;;;;;;4915524;28;89628;-31
2022/01/17 08:07:33;;;;;;;22.38;6.75;;;6.80;99.90;;;;;;4915620;28;87534;-31
2022/01/17 08:09:59;;;;;;;8.00;5.18;;;6.70;99.90;;;;;;4914286;28;90271;-31
2022/01/17 08:12:25;;;;;;;20.85;6.65;;;6.70;99.90;;;;;;4915218;28;91004;-30
2022/01/17 08:14:50;;;;;;;17.35;7.50;;;6.80;99.90;;;;;;4916196;28;90321;-33
2022/01/17 08:17:16;;;;;;;31.63;8.10;;;6.70;99.90;;;;;;4932093;28;89274;-32
2022/01/17 08:19:42;;;;;;;14.82;6.22;;;6.80;99.90;;;;;;4931894;28;90282;-29
2022/01/17 08:22:08;;;;;;;17.35;7.13;;;6.80;99.90;;;;;;4932300;28;88862;-30
2022/01/17 08:24:35;;;;;;;44.95;8.45;;;6.80;99.90;;;;;;4932214;28;89509;-30
2022/01/17 08:27:01;;;;;;;15.70;5.63;;;6.80;99.90;;;;;;4930755;28;89416;-31
2022/01/17 08:29:28;;;;;;;24.77;7.18;;;6.80;99.90;;;;;;4932036;28;90829;-31
2022/01/17 08:31:55;;;;;;;18.63;6.00;;;6.80;99.90;;;;;;4948921;28;88809;-31
2022/01/17 08:34:21;;;;;;;14.38;7.10;;;6.80;99.90;;;;;;4951059;28;88176;-32
2022/01/17 08:36:47;;;;;;;23.60;7.15;;;6.80;99.90;;;;;;4951251;28;89266;-31
2022/01/17 08:39:15;;;;;;;22.20;6.80;;;6.80;99.90;;;;;;4951249;28;90435;-31
2022/01/17 08:41:42;;;;;;;21.40;6.80;;;6.90;99.90;;;;;;4951014;28;89268;-30
2022/01/17 08:44:12;;;;;;;27.17;6.23;;;6.80;99.90;;;;;;4951215;28;89907;-30
2022/01/17 08:46:38;;;;;;;17.13;6.43;;;6.90;99.90;;;;;;4951788;28;88768;-31
2022/01/17 08:49:05;;;;;;;12.25;4.80;;;6.90;99.90;;;;;;4950467;28;90001;-29
2022/01/17 08:51:31;;;;;;;24.27;7.93;;;6.90;99.90;;;;;;4953557;28;89842;-30
2022/01/17 08:53:56;;;;;;;33.17;7.25;;;7.00;99.90;;;;;;4954579;28;89877;-31
2022/01/17 08:56:22;;;;;;;25.08;7.57;;;6.90;99.90;;;;;;4955332;28;89064;-31
2022/01/17 08:58:47;;;;;;;31.35;7.68;;;6.90;99.90;;;;;;4954054;28;88943;-31
2022/01/17 09:01:13;;;;;;;41.28;7.53;;;6.90;99.90;;;;;;4953920;28;90360;-31
2022/01/17 09:03:43;;;;;;;23.55;7.15;;;6.90;99.90;;;;;;4954381;28;90512;-29
2022/01/17 09:06:08;;;;;;;29.67;8.57;;;6.90;99.90;;;;;;4954817;28;88048;-31
2022/01/17 09:08:34;;;;;;;38.20;8.23;;;6.90;99.90;;;;;;4954148;28;90403;-29
2022/01/17 09:10:59;;;;;;;16.05;5.75;;;6.90;99.90;;;;;;4954399;28;88817;-31
2022/01/17 09:13:26;;;;;;;34.88;7.45;;;7.00;99.90;;;;;;4954176;28;89151;-30
2022/01/17 09:15:52;;;;;;;23.42;6.28;;;7.00;99.90;;;;;;4954486;28;89133;-29
2022/01/17 09:18:20;;;;;;;25.50;6.60;;;7.00;99.90;;;;;;4952698;28;90227;-29
2022/01/17 09:20:47;;;;;;;29.13;8.07;;;7.10;99.90;;;;;;4953782;28;89441;-30
2022/01/17 09:23:13;;;;;;;30.55;7.88;;;7.10;99.90;;;;;;4936118;28;89731;-30
2022/01/17 09:25:38;;;;;;;34.35;7.63;;;7.10;99.90;;;;;;4933136;28;88161;-30
2022/01/17 09:28:04;;;;;;;35.83;7.20;;;7.10;99.90;;;;;;4934101;28;90374;-31
2022/01/17 09:30:30;;;;;;;38.28;7.88;;;7.10;99.90;;;;;;4934471;28;89848;-31
2022/01/17 09:32:56;;;;;;;19.58;6.50;;;7.10;99.90;;;;;;4934389;28;89640;-31
2022/01/17 09:35:23;;;;;;;27.63;7.90;;;7.20;99.90;;;;;;4934517;28;87625;-30
2022/01/17 09:37:50;;;;;;;25.02;6.85;;;7.30;99.90;;;;;;4934083;28;90299;-31
2022/01/17 09:40:18;;;;;;;24.90;7.22;;;7.20;99.90;;;;;;4934470;28;89771;-30
2022/01/17 09:42:44;;;;;;;24.45;6.28;;;7.30;99.90;;;;;;4946459;28;89158;-30
2022/01/17 09:45:12;;;;;;;26.92;7.05;;;7.40;99.90;;;;;;4953657;28;88216;-33
2022/01/17 09:47:39;;;;;;;;;;;7.40;99.90;;;;;;4954137;28;90099;-30
2022/01/17 09:50:12;;;;;;;30.45;7.32;;;7.50;99.90;;;;;;4954724;28;89807;-32
2022/01/17 09:52:47;;;;;;;29.80;7.57;;;7.50;99.90;;;;;;4953479;28;90535;-32
2022/01/17 09:55:22;;;;;;;27.00;6.72;;;7.70;99.90;;;;;;4953959;28;87764;-34
2022/01/17 09:57:53;;;;;;;25.80;7.50;;;7.70;99.90;;;;;;4953444;28;89272;-31
2022/01/17 10:00:26;;;;;;;21.55;6.60;;;7.90;99.90;;;;;;4953631;28;88888;-30
2022/01/17 10:02:54;;;;;;;35.35;7.85;;;8.10;99.90;;;;;;4952959;28;89597;-29
2022/01/17 10:05:20;;;;;;;25.93;7.03;;;8.10;99.90;;;;;;4953606;28;89197;-30
2022/01/17 10:08:04;;;;;;;23.95;8.30;;;8.20;99.90;;;;;;4953425;28;90233;-32
2022/01/17 10:10:54;;;;;;;20.77;7.30;;;8.20;99.90;;;;;;4953572;28;88422;-30
2022/01/17 10:13:25;;;;;;;25.05;7.65;;;8.30;99.90;;;;;;4953040;28;88628;-32
2022/01/17 10:16:06;;;;;;;29.73;7.05;;;8.30;99.90;;;;;;4952491;28;88383;-29
2022/01/17 10:19:00;;;;;;;26.80;7.00;;;8.30;99.90;;;;;;4953649;28;90617;-33
2022/01/17 10:21:29;;;;;;;25.33;8.00;;;8.50;99.90;;;;;;4947307;28;88710;-30
2022/01/17 10:24:13;;;;;;;26.60;8.85;;;8.60;99.90;;;;;;4952864;28;89295;-30
2022/01/17 10:29:32;;;;;;;18.70;7.07;;;8.70;99.90;;;;;;4953288;28;90247;-33
2022/01/17 10:34:56;;;;;;;43.15;8.27;;;8.90;99.90;;;;;;4952760;28;89603;-33
2022/01/17 10:37:27;;;;;;;32.13;6.53;;;8.90;99.90;;;;;;4953221;28;87556;-32
2022/01/17 10:40:02;;;;;;;29.42;9.10;;;9.10;99.90;;;;;;4935024;28;90101;-33
2022/01/17 10:42:43;;;;;;;30.33;8.10;;;9.20;99.90;;;;;;4951340;28;90697;-31
2022/01/17 10:45:24;;;;;;;29.10;7.97;;;9.30;99.90;;;;;;4952970;28;90530;-31
2022/01/17 10:47:53;;;;;;;28.85;6.95;;;9.30;99.90;;;;;;4952524;28;88382;-32
2022/01/17 10:50:28;;;;;;;19.77;6.38;;;9.30;99.90;;;;;;4952889;28;90166;-29
2022/01/17 10:52:56;;;;;;;31.13;8.70;;;9.40;99.90;;;;;;4952355;28;89471;-31
2022/01/17 10:55:30;;;;;;;32.58;8.02;;;9.50;99.90;;;;;;4952405;28;90480;-31
2022/01/17 10:58:02;;;;;;;26.02;7.88;;;9.50;99.90;;;;;;4952375;28;88097;-33
2022/01/17 11:00:35;;;;;;;42.10;8.50;;;9.60;99.90;;;;;;4952444;28;89471;-31
2022/01/17 11:03:03;;;;;;;24.70;9.13;;;9.60;99.90;;;;;;4952402;28;89986;-29
2022/01/17 11:05:31;;;;;;;35.90;7.85;;;9.60;99.90;;;;;;4952144;28;89582;-29
2022/01/17 11:08:01;;;;;;;31.55;6.88;;;9.70;99.90;;;;;;4952066;28;88619;-31
2022/01/17 11:10:36;;;;;;;22.85;7.18;;;9.70;99.90;;;;;;4952355;28;90381;-30
2022/01/17 11:13:06;;;;;;;42.80;9.88;;;9.70;99.90;;;;;;4951096;28;89510;-31
2022/01/17 11:15:33;;;;;;;26.10;8.43;;;9.70;99.90;;;;;;4952547;28;89767;-30
2022/01/17 11:18:16;;;;;;;31.10;8.30;;;9.80;99.90;;;;;;4952089;28;87661;-32
2022/01/17 11:20:42;;;;;;;29.10;6.30;;;9.70;99.90;;;;;;4951822;28;90329;-32
2022/01/17 11:23:08;;;;;;;30.73;7.25;;;9.70;99.90;;;;;;4952039;28;91340;-32
2022/01/17 11:25:37;;;;;;;22.88;6.13;;;9.80;99.90;;;;;;4951826;28;89607;-35
2022/01/17 11:28:05;;;;;;;33.50;9.38;;;9.70;99.90;;;;;;4950430;28;89682;-31
2022/01/17 11:30:34;;;;;;;33.88;7.80;;;9.70;99.90;;;;;;4952238;28;90964;-30
2022/01/17 11:33:04;;;;;;;23.88;7.93;;;9.80;99.90;;;;;;4951703;28;90930;-32
2022/01/17 11:35:31;;;;;;;19.70;7.43;;;9.70;99.90;;;;;;4951773;28;90195;-33
2022/01/17 11:37:59;;;;;;;32.95;8.75;;;9.70;99.90;;;;;;4951592;28;88094;-30
2022/01/17 11:40:44;;;;;;;35.97;9.10;;;9.70;99.90;;;;;;4951772;28;89262;-30
2022/01/17 11:43:22;;;;;;;33.30;8.68;;;9.80;99.90;;;;;;4944986;22;89266;-30
2022/01/17 11:45:53;;;;;;;29.83;7.47;;;9.90;99.90;;;;;;4893723;28;89393;-33
2022/01/17 11:48:25;;;;;;;30.25;7.72;;;9.90;99.90;;;;;;4893921;28;88996;-29
2022/01/17 11:50:52;;;;;;;15.00;5.75;;;9.80;99.90;;;;;;4893801;28;90347;-31
2022/01/17 11:53:18;;;;;;;36.80;8.80;;;9.90;99.90;;;;;;4876479;28;91080;-31
2022/01/17 11:55:46;;;;;;;35.55;9.63;;;9.90;99.90;;;;;;4893715;28;89632;-29
2022/01/17 11:58:26;;;;;;;25.63;8.35;;;9.80;99.90;;;;;;4893438;28;88010;-31
2022/01/17 12:00:59;;;;;;;36.75;9.20;;;9.80;99.90;;;;;;4893379;28;90107;-30
2022/01/17 12:03:28;;;;;;;39.65;8.85;;;9.70;99.90;;;;;;4893617;28;89099;-29
2022/01/17 12:05:56;;;;;;;39.72;10.02;;;9.70;99.90;;;;;;4893616;28;89743;-30
2022/01/17 12:08:24;;;;;;;29.17;9.10;;;9.80;99.90;;;;;;4893324;28;88490;-32
2022/01/17 12:10:58;;;;;;;;;;;9.80;99.90;;;;;;4893910;28;90234;-31
2022/01/17 12:13:34;;;;;;;24.25;8.70;;;9.90;99.90;;;;;;4895301;28;89854;-31
2022/01/17 12:16:22;;;;;;;27.20;9.35;;;9.90;99.90;;;;;;4893607;28;89455;-31
2022/01/17 12:18:51;;;;;;;35.55;9.27;;;9.80;99.90;;;;;;4893751;28;87657;-31
2022/01/17 12:21:32;;;;;;;37.83;9.77;;;9.80;99.90;;;;;;4893410;28;90265;-31
2022/01/17 12:24:20;;;;;;;20.33;6.72;;;9.80;99.90;;;;;;4890843;28;89678;-30
2022/01/17 12:26:54;;;;;;;34.65;8.32;;;9.90;99.90;;;;;;4896661;28;90622;-32
2022/01/17 12:29:47;;;;;;;30.95;8.70;;;9.90;99.90;;;;;;4897256;28;89415;-29
2022/01/17 12:32:24;;;;;;;30.90;8.13;;;9.80;99.90;;;;;;4896790;28;90258;-31
2022/01/17 12:35:04;;;;;;;25.55;8.20;;;9.80;99.90;;;;;;4896419;28;90460;-30
2022/01/17 12:37:45;;;;;;;35.83;8.38;;;9.90;99.90;;;;;;4897070;28;89579;-31
2022/01/17 12:40:30;;;;;;;21.95;6.97;;;9.80;99.90;;;;;;4896859;28;87928;-31
2022/01/17 12:43:01;;;;;;;32.47;10.00;;;9.70;99.90;;;;;;4896048;28;90265;-32
2022/01/17 12:45:26;;;;;;;32.28;7.28;;;9.80;99.90;;;;;;4895828;28;89525;-29
2022/01/17 12:47:53;;;;;;;28.80;7.97;;;9.80;99.90;;;;;;4895832;28;89485;-31
2022/01/17 12:50:21;;;;;;;23.58;6.90;;;10.00;99.90;;;;;;4896310;28;88890;-31
2022/01/17 12:52:49;;;;;;;24.83;7.25;;;10.10;99.90;;;;;;4896205;28;90093;-32
2022/01/17 12:55:15;;;;;;;28.48;7.20;;;10.00;99.90;;;;;;4896545;28;88732;-32
2022/01/17 12:57:43;;;;;;;34.05;8.63;;;10.00;99.90;;;;;;4896067;28;88778;-34
2022/01/17 13:00:21;;;;;;;24.93;7.17;;;9.90;99.90;;;;;;4896755;28;88028;-32
2022/01/17 13:02:52;;;;;;;15.90;5.40;;;9.90;99.90;;;;;;4895997;28;90231;-30
2022/01/17 13:05:27;;;;;;;19.63;6.22;;;10.10;99.90;;;;;;4896216;28;89936;-31
2022/01/17 13:07:53;;;;;;;17.95;5.78;;;9.90;99.90;;;;;;4896468;28;89751;-32
2022/01/17 13:10:20;;;;;;;25.23;7.90;;;10.00;99.90;;;;;;4896493;28;89286;-32
2022/01/17 13:12:49;;;;;;;20.58;5.50;;;10.00;99.90;;;;;;4896049;28;90342;-32
2022/01/17 13:15:15;;;;;;;27.30;7.20;;;9.90;99.90;;;;;;4895704;28;90722;-32
2022/01/17 13:17:40;;;;;;;31.73;7.28;;;9.90;99.90;;;;;;4895871;28;90645;-31
2022/01/17 13:20:08;;;;;;;17.98;5.68;;;9.80;99.90;;;;;;4896384;28;87958;-34